sensor_id;sensor_type;location;lat;lon;timestamp;pressure;altitude;pressure_sealevel;temperature;humidity
42067;BME280;27734;47.028;28.820;2023-05-13T00:00:47;101189.89;;;12.46;47.84
42067;BME280;27734;47.028;28.820;2023-05-13T00:03:18;101190.75;;;12.45;47.98
42067;BME280;27734;47.028;28.820;2023-05-13T00:05:52;101187.14;;;12.43;48.28
42067;BME280;27734;47.028;28.820;2023-05-13T00:08:23;101186.25;;;12.43;48.14
42067;BME280;27734;47.028;28.820;2023-05-13T00:10:55;101189.77;;;12.43;48.25
42067;BME280;27734;47.028;28.820;2023-05-13T00:13:26;101188.77;;;12.39;48.35
42067;BME280;27734;47.028;28.820;2023-05-13T00:15:57;101182.61;;;12.39;48.58
42067;BME280;27734;47.028;28.820;2023-05-13T00:18:29;101193.91;;;12.36;48.83
42067;BME280;27734;47.028;28.820;2023-05-13T00:21:00;101183.32;;;12.35;48.66
42067;BME280;27734;47.028;28.820;2023-05-13T00:23:31;101186.84;;;12.35;49.11
42067;BME280;27734;47.028;28.820;2023-05-13T00:26:02;101186.84;;;12.35;49.00
42067;BME280;27734;47.028;28.820;2023-05-13T00:28:34;101186.77;;;12.34;49.01
42067;BME280;27734;47.028;28.820;2023-05-13T00:31:05;101183.14;;;12.30;49.06
42067;BME280;27734;47.028;28.820;2023-05-13T00:33:36;101182.13;;;12.27;49.37
42067;BME280;27734;47.028;28.820;2023-05-13T00:36:08;101183.66;;;12.21;49.44
42067;BME280;27734;47.028;28.820;2023-05-13T00:38:41;101191.36;;;12.17;49.46
42067;BME280;27734;47.028;28.820;2023-05-13T00:41:13;101197.42;;;12.14;49.96
42067;BME280;27734;47.028;28.820;2023-05-13T00:43:45;101188.45;;;12.09;49.79
42067;BME280;27734;47.028;28.820;2023-05-13T00:46:19;101188.39;;;12.08;50.20
42067;BME280;27734;47.028;28.820;2023-05-13T00:48:50;101185.52;;;12.01;49.40
42067;BME280;27734;47.028;28.820;2023-05-13T00:51:21;101183.64;;;11.99;50.34
42067;BME280;27734;47.028;28.820;2023-05-13T00:53:52;101184.34;;;11.95;50.79
42067;BME280;27734;47.028;28.820;2023-05-13T00:56:24;101184.12;;;11.90;50.87
42067;BME280;27734;47.028;28.820;2023-05-13T00:58:56;101180.34;;;11.83;50.83
42067;BME280;27734;47.028;28.820;2023-05-13T01:01:32;101183.67;;;11.79;51.50
42067;BME280;27734;47.028;28.820;2023-05-13T01:04:12;101187.91;;;11.76;51.69
42067;BME280;27734;47.028;28.820;2023-05-13T01:06:54;101185.03;;;11.69;51.82
42067;BME280;27734;47.028;28.820;2023-05-13T01:09:36;101182.33;;;11.68;51.81
42067;BME280;27734;47.028;28.820;2023-05-13T01:12:15;101186.64;;;11.66;51.78
42067;BME280;27734;47.028;28.820;2023-05-13T01:14:51;101194.39;;;11.63;52.49
42067;BME280;27734;47.028;28.820;2023-05-13T01:17:29;101184.58;;;11.59;52.76
42067;BME280;27734;47.028;28.820;2023-05-13T01:20:03;101188.81;;;11.55;52.91
42067;BME280;27734;47.028;28.820;2023-05-13T01:22:35;101186.12;;;11.54;53.16
42067;BME280;27734;47.028;28.820;2023-05-13T01:25:07;101188.68;;;11.52;53.57
42067;BME280;27734;47.028;28.820;2023-05-13T01:27:39;101193.05;;;11.51;53.16
42067;BME280;27734;47.028;28.820;2023-05-13T01:30:13;101187.73;;;11.50;53.37
42067;BME280;27734;47.028;28.820;2023-05-13T01:32:45;101187.66;;;11.48;53.45
42067;BME280;27734;47.028;28.820;2023-05-13T01:35:18;101187.66;;;11.48;53.49
42067;BME280;27734;47.028;28.820;2023-05-13T01:37:51;101188.48;;;11.47;53.53
42067;BME280;27734;47.028;28.820;2023-05-13T01:40:23;101188.34;;;11.44;53.88
42067;BME280;27734;47.028;28.820;2023-05-13T01:42:55;101182.14;;;11.42;54.08
42067;BME280;27734;47.028;28.820;2023-05-13T01:45:28;101191.73;;;11.42;54.60
42067;BME280;27734;47.028;28.820;2023-05-13T01:47:59;101185.45;;;11.38;54.15
42067;BME280;27734;47.028;28.820;2023-05-13T01:50:38;101181.81;;;11.35;54.51
42067;BME280;27734;47.028;28.820;2023-05-13T01:53:09;101187.00;;;11.33;54.97
42067;BME280;27734;47.028;28.820;2023-05-13T01:55:41;101181.67;;;11.31;54.43
42067;BME280;27734;47.028;28.820;2023-05-13T01:58:12;101181.61;;;11.30;54.59
42067;BME280;27734;47.028;28.820;2023-05-13T02:00:44;101191.12;;;11.28;54.72
42067;BME280;27734;47.028;28.820;2023-05-13T02:03:15;101183.25;;;11.28;55.16
42067;BME280;27734;47.028;28.820;2023-05-13T02:05:47;101178.84;;;11.27;54.91
42067;BME280;27734;47.028;28.820;2023-05-13T02:08:19;101182.22;;;11.24;55.05
42067;BME280;27734;47.028;28.820;2023-05-13T02:10:57;101179.53;;;11.23;54.70
42067;BME280;27734;47.028;28.820;2023-05-13T02:13:31;101180.28;;;11.20;55.03
42067;BME280;27734;47.028;28.820;2023-05-13T02:16:03;101184.64;;;11.20;55.27
42067;BME280;27734;47.028;28.820;2023-05-13T02:18:34;101180.14;;;11.17;55.34
42067;BME280;27734;47.028;28.820;2023-05-13T02:21:06;101182.77;;;11.17;55.07
42067;BME280;27734;47.028;28.820;2023-05-13T02:23:37;101182.70;;;11.15;55.50
42067;BME280;27734;47.028;28.820;2023-05-13T02:26:08;101187.95;;;11.15;55.38
42067;BME280;27734;47.028;28.820;2023-05-13T02:28:39;101193.08;;;11.12;55.40
42067;BME280;27734;47.028;28.820;2023-05-13T02:31:11;101190.31;;;11.09;55.61
42067;BME280;27734;47.028;28.820;2023-05-13T02:33:42;101191.09;;;11.07;55.65
42067;BME280;27734;47.028;28.820;2023-05-13T02:36:13;101192.05;;;11.09;56.20
42067;BME280;27734;47.028;28.820;2023-05-13T02:38:44;101189.49;;;11.10;56.73
42067;BME280;27734;47.028;28.820;2023-05-13T02:41:16;101198.97;;;11.07;57.24
42067;BME280;27734;47.028;28.820;2023-05-13T02:43:48;101194.41;;;11.03;57.01
42067;BME280;27734;47.028;28.820;2023-05-13T02:46:19;101196.00;;;10.99;57.25
42067;BME280;27734;47.028;28.820;2023-05-13T02:48:50;101195.86;;;10.96;57.11
42067;BME280;27734;47.028;28.820;2023-05-13T02:51:22;101195.93;;;10.97;57.42
42067;BME280;27734;47.028;28.820;2023-05-13T02:53:53;101194.13;;;10.96;57.08
42067;BME280;27734;47.028;28.820;2023-05-13T02:56:24;101195.86;;;10.96;57.49
42067;BME280;27734;47.028;28.820;2023-05-13T02:58:55;101197.67;;;10.97;57.86
42067;BME280;27734;47.028;28.820;2023-05-13T03:01:27;101201.11;;;10.96;57.93
42067;BME280;27734;47.028;28.820;2023-05-13T03:03:58;101201.11;;;10.96;57.76
42067;BME280;27734;47.028;28.820;2023-05-13T03:06:29;101197.67;;;10.97;57.47
42067;BME280;27734;47.028;28.820;2023-05-13T03:09:00;101193.30;;;10.97;58.13
42067;BME280;27734;47.028;28.820;2023-05-13T03:11:32;101203.88;;;10.99;57.62
42067;BME280;27734;47.028;28.820;2023-05-13T03:14:03;101201.53;;;11.05;57.98
42067;BME280;27734;47.028;28.820;2023-05-13T03:16:34;101204.30;;;11.08;58.14
42067;BME280;27734;47.028;28.820;2023-05-13T03:19:05;101200.95;;;11.12;58.34
42067;BME280;27734;47.028;28.820;2023-05-13T03:21:37;101209.82;;;11.14;58.32
42067;BME280;27734;47.028;28.820;2023-05-13T03:24:10;101202.83;;;11.15;58.23
42067;BME280;27734;47.028;28.820;2023-05-13T03:26:42;101210.78;;;11.17;58.15
42067;BME280;27734;47.028;28.820;2023-05-13T03:29:13;101210.03;;;11.19;58.43
42067;BME280;27734;47.028;28.820;2023-05-13T03:31:44;101204.91;;;11.22;58.33
42067;BME280;27734;47.028;28.820;2023-05-13T03:34:16;101205.94;;;11.26;57.72
42067;BME280;27734;47.028;28.820;2023-05-13T03:36:47;101207.02;;;11.31;58.02
42067;BME280;27734;47.028;28.820;2023-05-13T03:39:18;101202.89;;;11.36;57.92
42067;BME280;27734;47.028;28.820;2023-05-13T03:41:50;101209.30;;;11.43;58.29
42067;BME280;27734;47.028;28.820;2023-05-13T03:44:21;101210.33;;;11.46;57.95
42067;BME280;27734;47.028;28.820;2023-05-13T03:46:52;101214.08;;;11.51;57.94
42067;BME280;27734;47.028;28.820;2023-05-13T03:49:23;101215.16;;;11.57;58.56
42067;BME280;27734;47.028;28.820;2023-05-13T03:51:55;101214.44;;;11.61;58.18
42067;BME280;27734;47.028;28.820;2023-05-13T03:54:26;101219.83;;;11.64;58.15
42067;BME280;27734;47.028;28.820;2023-05-13T03:56:57;101210.36;;;11.67;58.34
42067;BME280;27734;47.028;28.820;2023-05-13T03:59:29;101209.70;;;11.73;58.52
42067;BME280;27734;47.028;28.820;2023-05-13T04:02:00;101206.45;;;11.79;58.38
42067;BME280;27734;47.028;28.820;2023-05-13T04:04:31;101210.09;;;11.82;58.27
42067;BME280;27734;47.028;28.820;2023-05-13T04:07:03;101208.58;;;11.87;58.51
42067;BME280;27734;47.028;28.820;2023-05-13T04:09:34;101212.32;;;11.93;58.50
42067;BME280;27734;47.028;28.820;2023-05-13T04:12:06;101215.27;;;12.00;58.48
42067;BME280;27734;47.028;28.820;2023-05-13T04:14:37;101217.20;;;12.04;58.36
42067;BME280;27734;47.028;28.820;2023-05-13T04:17:08;101217.48;;;12.12;58.53
42067;BME280;27734;47.028;28.820;2023-05-13T04:19:40;101214.22;;;12.18;58.45
42067;BME280;27734;47.028;28.820;2023-05-13T04:22:11;101212.72;;;12.25;58.68
42067;BME280;27734;47.028;28.820;2023-05-13T04:24:42;101212.02;;;12.29;58.78
42067;BME280;27734;47.028;28.820;2023-05-13T04:27:14;101218.30;;;12.32;58.51
42067;BME280;27734;47.028;28.820;2023-05-13T04:29:45;101222.09;;;12.39;58.75
42067;BME280;27734;47.028;28.820;2023-05-13T04:32:17;101225.80;;;12.44;58.53
42067;BME280;27734;47.028;28.820;2023-05-13T04:34:53;101230.36;;;12.48;58.57
42067;BME280;27734;47.028;28.820;2023-05-13T04:37:24;101233.94;;;12.50;58.00
42067;BME280;27734;47.028;28.820;2023-05-13T04:39:59;101231.48;;;12.55;58.64
42067;BME280;27734;47.028;28.820;2023-05-13T04:42:30;101225.58;;;12.61;58.40
42067;BME280;27734;47.028;28.820;2023-05-13T04:45:02;101230.22;;;12.68;58.57
42067;BME280;27734;47.028;28.820;2023-05-13T04:47:33;101229.63;;;12.75;58.09
42067;BME280;27734;47.028;28.820;2023-05-13T04:50:07;101229.06;;;12.84;58.50
42067;BME280;27734;47.028;28.820;2023-05-13T04:52:39;101228.59;;;12.94;58.06
42067;BME280;27734;47.028;28.820;2023-05-13T04:55:13;101236.01;;;13.04;58.14
42067;BME280;27734;47.028;28.820;2023-05-13T04:57:45;101231.02;;;13.12;58.23
42067;BME280;27734;47.028;28.820;2023-05-13T05:00:20;101230.55;;;13.24;58.38
42067;BME280;27734;47.028;28.820;2023-05-13T05:02:54;101236.20;;;13.33;58.25
42067;BME280;27734;47.028;28.820;2023-05-13T05:05:31;101235.64;;;13.42;58.51
42067;BME280;27734;47.028;28.820;2023-05-13T05:11:04;101230.16;;;13.61;57.88
42067;BME280;27734;47.028;28.820;2023-05-13T05:13:37;101227.84;;;13.71;58.01
42067;BME280;27734;47.028;28.820;2023-05-13T05:16:09;101239.81;;;13.87;57.92
42067;BME280;27734;47.028;28.820;2023-05-13T05:18:41;101238.51;;;13.99;58.10
42067;BME280;27734;47.028;28.820;2023-05-13T05:21:12;101234.38;;;14.08;57.67
42067;BME280;27734;47.028;28.820;2023-05-13T05:23:44;101232.97;;;14.19;56.77
42067;BME280;27734;47.028;28.820;2023-05-13T05:26:15;101228.98;;;14.32;56.95
42067;BME280;27734;47.028;28.820;2023-05-13T05:28:47;101230.28;;;14.45;56.74
42067;BME280;27734;47.028;28.820;2023-05-13T05:31:22;101230.63;;;14.55;56.36
42067;BME280;27734;47.028;28.820;2023-05-13T05:33:58;101236.13;;;14.62;56.70
42067;BME280;27734;47.028;28.820;2023-05-13T05:36:31;101234.70;;;14.73;56.65
42067;BME280;27734;47.028;28.820;2023-05-13T05:39:23;101237.72;;;14.85;56.66
42067;BME280;27734;47.028;28.820;2023-05-13T05:41:56;101243.42;;;14.99;56.49
42067;BME280;27734;47.028;28.820;2023-05-13T05:44:35;101242.86;;;15.11;56.06
42067;BME280;27734;47.028;28.820;2023-05-13T05:47:08;101244.05;;;15.21;55.82
42067;BME280;27734;47.028;28.820;2023-05-13T05:49:40;101246.17;;;15.34;55.32
42067;BME280;27734;47.028;28.820;2023-05-13T05:52:12;101249.23;;;15.50;55.20
42067;BME280;27734;47.028;28.820;2023-05-13T05:54:43;101249.53;;;15.60;55.68
42067;BME280;27734;47.028;28.820;2023-05-13T05:57:15;101255.95;;;15.70;55.34
42067;BME280;27734;47.028;28.820;2023-05-13T05:59:46;101242.12;;;15.79;54.75
42067;BME280;27734;47.028;28.820;2023-05-13T06:02:20;101238.88;;;15.91;54.46
42067;BME280;27734;47.028;28.820;2023-05-13T06:04:54;101243.48;;;15.98;54.00
42067;BME280;27734;47.028;28.820;2023-05-13T06:07:27;101245.48;;;16.07;53.95
42067;BME280;27734;47.028;28.820;2023-05-13T06:10:00;101242.95;;;16.11;53.92
42067;BME280;27734;47.028;28.820;2023-05-13T06:12:33;101241.38;;;16.20;53.77
42067;BME280;27734;47.028;28.820;2023-05-13T06:15:07;101239.06;;;16.33;53.08
42067;BME280;27734;47.028;28.820;2023-05-13T06:17:39;101242.81;;;16.43;52.72
42067;BME280;27734;47.028;28.820;2023-05-13T06:20:15;101245.80;;;16.57;52.88
42067;BME280;27734;47.028;28.820;2023-05-13T06:22:53;101248.02;;;16.77;52.41
42067;BME280;27734;47.028;28.820;2023-05-13T06:25:27;101250.97;;;16.91;52.05
42067;BME280;27734;47.028;28.820;2023-05-13T06:27:59;101242.36;;;17.01;51.76
42067;BME280;27734;47.028;28.820;2023-05-13T06:30:30;101246.06;;;17.09;51.03
42067;BME280;27734;47.028;28.820;2023-05-13T06:33:07;101240.06;;;17.18;51.06
42067;BME280;27734;47.028;28.820;2023-05-13T06:35:44;101250.16;;;17.36;50.88
42067;BME280;27734;47.028;28.820;2023-05-13T06:38:20;101240.80;;;17.55;51.28
42067;BME280;27734;47.028;28.820;2023-05-13T06:40:54;101246.27;;;17.64;48.22
42067;BME280;27734;47.028;28.820;2023-05-13T06:43:37;101251.73;;;17.72;49.59
42067;BME280;27734;47.028;28.820;2023-05-13T06:46:23;101246.78;;;17.90;50.10
42067;BME280;27734;47.028;28.820;2023-05-13T06:48:55;101248.06;;;18.14;49.78
42067;BME280;27734;47.028;28.820;2023-05-13T06:51:28;101242.16;;;18.33;49.02
42067;BME280;27734;47.028;28.820;2023-05-13T06:54:01;101239.64;;;18.43;48.28
42067;BME280;27734;47.028;28.820;2023-05-13T06:56:36;101245.89;;;18.46;48.32
42067;BME280;27734;47.028;28.820;2023-05-13T06:59:13;101247.69;;;18.47;48.19
42067;BME280;27734;47.028;28.820;2023-05-13T07:01:49;101248.62;;;18.51;47.78
42067;BME280;27734;47.028;28.820;2023-05-13T07:04:27;101242.65;;;18.66;46.98
42067;BME280;27734;47.028;28.820;2023-05-13T07:07:00;101239.28;;;18.78;46.90
42067;BME280;27734;47.028;28.820;2023-05-13T07:09:32;101234.91;;;18.83;46.21
42067;BME280;27734;47.028;28.820;2023-05-13T07:12:04;101240.39;;;18.92;46.31
42067;BME280;27734;47.028;28.820;2023-05-13T07:14:49;101236.16;;;19.10;45.84
42067;BME280;27734;47.028;28.820;2023-05-13T07:17:38;101239.00;;;19.24;46.34
42067;BME280;27734;47.028;28.820;2023-05-13T07:20:16;101237.36;;;19.36;46.14
42067;BME280;27734;47.028;28.820;2023-05-13T07:22:52;101243.80;;;19.58;44.78
42067;BME280;27734;47.028;28.820;2023-05-13T07:28:34;101237.22;;;20.11;44.59
42067;BME280;27734;47.028;28.820;2023-05-13T07:31:12;101236.56;;;20.40;45.28
42067;BME280;27734;47.028;28.820;2023-05-13T07:33:51;101241.14;;;20.63;43.84
42067;BME280;27734;47.028;28.820;2023-05-13T07:36:27;101238.61;;;20.81;44.25
42067;BME280;27734;47.028;28.820;2023-05-13T07:39:06;101236.08;;;21.11;43.51
42067;BME280;27734;47.028;28.820;2023-05-13T07:41:54;101245.08;;;21.41;43.18
42067;BME280;27734;47.028;28.820;2023-05-13T07:44:34;101241.63;;;21.71;42.46
42067;BME280;27734;47.028;28.820;2023-05-13T07:47:13;101243.41;;;21.77;40.37
42067;BME280;27734;47.028;28.820;2023-05-13T07:49:49;101244.33;;;21.88;40.11
42067;BME280;27734;47.028;28.820;2023-05-13T07:52:21;101247.01;;;21.97;40.06
42067;BME280;27734;47.028;28.820;2023-05-13T07:54:56;101239.88;;;21.98;40.62
42067;BME280;27734;47.028;28.820;2023-05-13T07:57:28;101238.08;;;22.18;39.63
42067;BME280;27734;47.028;28.820;2023-05-13T08:00:01;101249.67;;;22.42;39.44
42067;BME280;27734;47.028;28.820;2023-05-13T08:02:43;101239.85;;;22.63;39.32
42067;BME280;27734;47.028;28.820;2023-05-13T08:05:15;101246.05;;;22.75;38.26
42067;BME280;27734;47.028;28.820;2023-05-13T08:08:33;101245.11;;;22.86;37.84
42067;BME280;27734;47.028;28.820;2023-05-13T08:11:20;101245.06;;;23.01;37.62
42067;BME280;27734;47.028;28.820;2023-05-13T08:13:53;101245.89;;;23.20;37.41
42067;BME280;27734;47.028;28.820;2023-05-13T08:16:26;101244.00;;;23.47;36.81
42067;BME280;27734;47.028;28.820;2023-05-13T08:19:00;101239.31;;;23.80;36.72
42067;BME280;27734;47.028;28.820;2023-05-13T08:21:33;101247.30;;;23.92;35.87
42067;BME280;27734;47.028;28.820;2023-05-13T08:24:06;101243.67;;;23.96;35.67
42067;BME280;27734;47.028;28.820;2023-05-13T08:26:42;101233.86;;;23.97;35.31
42067;BME280;27734;47.028;28.820;2023-05-13T08:29:28;101230.13;;;24.13;34.92
42067;BME280;27734;47.028;28.820;2023-05-13T08:32:05;101227.33;;;24.27;34.88
42067;BME280;27734;47.028;28.820;2023-05-13T08:34:39;101234.38;;;24.39;34.10
42067;BME280;27734;47.028;28.820;2023-05-13T08:37:16;101230.78;;;24.38;34.01
42067;BME280;27734;47.028;28.820;2023-05-13T08:39:48;101230.66;;;24.51;33.58
42067;BME280;27734;47.028;28.820;2023-05-13T08:42:21;101231.55;;;24.53;33.00
42067;BME280;27734;47.028;28.820;2023-05-13T08:45:04;101225.33;;;24.48;32.47
42067;BME280;27734;47.028;28.820;2023-05-13T08:47:46;101222.78;;;24.34;31.32
42067;BME280;27734;47.028;28.820;2023-05-13T08:50:34;101220.14;;;24.29;30.77
42067;BME280;27734;47.028;28.820;2023-05-13T08:53:25;101222.97;;;24.17;31.02
42067;BME280;27734;47.028;28.820;2023-05-13T08:56:02;101220.34;;;24.11;31.04
42067;BME280;27734;47.028;28.820;2023-05-13T08:58:46;101223.14;;;23.97;30.28
42067;BME280;27734;47.028;28.820;2023-05-13T09:01:25;101210.70;;;23.86;30.85
42067;BME280;27734;47.028;28.820;2023-05-13T09:04:03;101217.08;;;23.68;30.59
42067;BME280;27734;47.028;28.820;2023-05-13T09:06:43;101218.94;;;23.54;30.41
42067;BME280;27734;47.028;28.820;2023-05-13T09:09:20;101227.97;;;23.39;30.45
42067;BME280;27734;47.028;28.820;2023-05-13T09:11:52;101228.05;;;23.25;30.30
42067;BME280;27734;47.028;28.820;2023-05-13T09:14:30;101226.30;;;23.15;29.69
42067;BME280;27734;47.028;28.820;2023-05-13T09:17:08;101222.77;;;23.08;29.52
42067;BME280;27734;47.028;28.820;2023-05-13T09:19:45;101220.08;;;23.05;29.92
42067;BME280;27734;47.028;28.820;2023-05-13T09:22:20;101220.97;;;23.01;29.76
42067;BME280;27734;47.028;28.820;2023-05-13T09:25:04;101218.33;;;22.92;29.69
42067;BME280;27734;47.028;28.820;2023-05-13T09:27:46;101212.13;;;22.85;29.14
42067;BME280;27734;47.028;28.820;2023-05-13T09:30:38;101213.00;;;22.87;29.38
42067;BME280;27734;47.028;28.820;2023-05-13T09:33:38;101221.92;;;22.91;29.15
42067;BME280;27734;47.028;28.820;2023-05-13T09:36:28;101201.41;;;22.88;28.83
42067;BME280;27734;47.028;28.820;2023-05-13T09:39:05;101213.91;;;22.86;28.37
42067;BME280;27734;47.028;28.820;2023-05-13T09:41:58;101209.45;;;22.84;28.79
42067;BME280;27734;47.028;28.820;2023-05-13T09:44:41;101208.59;;;22.78;28.96
42067;BME280;27734;47.028;28.820;2023-05-13T09:47:14;101206.83;;;22.67;28.35
42067;BME280;27734;47.028;28.820;2023-05-13T09:49:55;101206.84;;;22.60;28.03
42067;BME280;27734;47.028;28.820;2023-05-13T09:52:34;101204.19;;;22.54;28.24
42067;BME280;27734;47.028;28.820;2023-05-13T09:55:09;101204.22;;;22.42;28.14
42067;BME280;27734;47.028;28.820;2023-05-13T09:57:46;101193.54;;;22.31;28.58
42067;BME280;27734;47.028;28.820;2023-05-13T10:00:18;101192.64;;;22.23;28.50
42067;BME280;27734;47.028;28.820;2023-05-13T10:02:50;101195.31;;;22.20;28.75
42067;BME280;27734;47.028;28.820;2023-05-13T10:05:26;101197.99;;;22.14;27.96
42067;BME280;27734;47.028;28.820;2023-05-13T10:07:58;101192.65;;;22.11;28.35
42067;BME280;27734;47.028;28.820;2023-05-13T10:10:36;101189.98;;;22.06;29.09
42067;BME280;27734;47.028;28.820;2023-05-13T10:13:12;101189.98;;;22.01;28.17
42067;BME280;27734;47.028;28.820;2023-05-13T10:15:51;101187.31;;;21.97;28.44
42067;BME280;27734;47.028;28.820;2023-05-13T10:18:30;101180.21;;;21.89;29.01
42067;BME280;27734;47.028;28.820;2023-05-13T10:21:02;101182.87;;;21.85;28.65
42067;BME280;27734;47.028;28.820;2023-05-13T10:23:38;101185.55;;;21.83;28.70
42067;BME280;27734;47.028;28.820;2023-05-13T10:26:12;101183.76;;;21.79;28.39
42067;BME280;27734;47.028;28.820;2023-05-13T10:28:48;101184.64;;;21.80;28.64
42067;BME280;27734;47.028;28.820;2023-05-13T10:31:22;101181.09;;;21.84;28.37
42067;BME280;27734;47.028;28.820;2023-05-13T10:34:01;101171.28;;;21.87;28.40
42067;BME280;27734;47.028;28.820;2023-05-13T10:36:46;101174.87;;;21.89;29.06
42067;BME280;27734;47.028;28.820;2023-05-13T10:42:39;101172.19;;;21.99;29.54
42067;BME280;27734;47.028;28.820;2023-05-13T10:45:11;101173.07;;;21.98;29.27
42067;BME280;27734;47.028;28.820;2023-05-13T10:47:52;101167.73;;;21.95;29.00
42067;BME280;27734;47.028;28.820;2023-05-13T10:50:29;101172.19;;;22.00;29.70
42067;BME280;27734;47.028;28.820;2023-05-13T10:53:24;101171.28;;;22.00;29.68
42067;BME280;27734;47.028;28.820;2023-05-13T10:55:57;101176.62;;;22.04;29.85
42067;BME280;27734;47.028;28.820;2023-05-13T10:58:33;101170.39;;;22.08;29.64
42067;BME280;27734;47.028;28.820;2023-05-13T11:01:17;101169.48;;;22.13;29.20
42067;BME280;27734;47.028;28.820;2023-05-13T11:03:54;101175.73;;;22.18;29.79
42067;BME280;27734;47.028;28.820;2023-05-13T11:06:40;101167.70;;;22.22;28.75
42067;BME280;27734;47.028;28.820;2023-05-13T11:09:31;101173.04;;;22.29;29.33
42067;BME280;27734;47.028;28.820;2023-05-13T11:12:18;101173.94;;;22.35;29.41
42067;BME280;27734;47.028;28.820;2023-05-13T11:15:43;101182.82;;;22.45;29.34
42067;BME280;27734;47.028;28.820;2023-05-13T11:18:16;101166.75;;;22.54;28.70
42067;BME280;27734;47.028;28.820;2023-05-13T11:20:52;101171.19;;;22.65;28.50
42067;BME280;27734;47.028;28.820;2023-05-13T11:23:29;101173.83;;;22.72;28.51
42067;BME280;27734;47.028;28.820;2023-05-13T11:26:14;101180.91;;;22.81;28.82
42067;BME280;27734;47.028;28.820;2023-05-13T11:29:03;101171.09;;;22.89;28.98
42067;BME280;27734;47.028;28.820;2023-05-13T11:31:47;101181.73;;;23.02;28.91
42067;BME280;27734;47.028;28.820;2023-05-13T11:34:21;101181.72;;;23.06;28.38
42067;BME280;27734;47.028;28.820;2023-05-13T11:37:09;101182.59;;;23.07;28.63
42067;BME280;27734;47.028;28.820;2023-05-13T11:39:45;101184.44;;;22.97;28.02
42067;BME280;27734;47.028;28.820;2023-05-13T11:42:18;101174.64;;;22.91;28.26
42067;BME280;27734;47.028;28.820;2023-05-13T11:45:08;101180.03;;;22.82;28.06
42067;BME280;27734;47.028;28.820;2023-05-13T11:47:46;101180.06;;;22.74;28.03
42067;BME280;27734;47.028;28.820;2023-05-13T11:50:22;101179.19;;;22.72;27.57
42067;BME280;27734;47.028;28.820;2023-05-13T11:52:55;101178.25;;;22.78;28.02
42067;BME280;27734;47.028;28.820;2023-05-13T11:55:31;101185.36;;;22.88;27.75
42067;BME280;27734;47.028;28.820;2023-05-13T11:58:04;101179.12;;;22.89;27.52
42067;BME280;27734;47.028;28.820;2023-05-13T12:00:36;101185.33;;;22.94;27.50
42067;BME280;27734;47.028;28.820;2023-05-13T12:03:11;101180.83;;;23.09;27.05
42067;BME280;27734;47.028;28.820;2023-05-13T12:05:45;101181.63;;;23.23;27.27
42067;BME280;27734;47.028;28.820;2023-05-13T12:08:21;101179.74;;;23.44;27.25
42067;BME280;27734;47.028;28.820;2023-05-13T12:10:53;101185.86;;;23.61;27.13
42067;BME280;27734;47.028;28.820;2023-05-13T12:13:26;101178.55;;;23.82;26.81
42067;BME280;27734;47.028;28.820;2023-05-13T12:15:59;101182.87;;;24.04;26.92
42067;BME280;27734;47.028;28.820;2023-05-13T12:18:31;101198.04;;;24.04;25.17
42067;BME280;27734;47.028;28.820;2023-05-13T12:21:19;101195.23;;;24.18;26.84
42067;BME280;27734;47.028;28.820;2023-05-13T12:23:56;101188.02;;;24.23;26.02
42067;BME280;27734;47.028;28.820;2023-05-13T12:26:31;101176.39;;;24.26;25.99
42067;BME280;27734;47.028;28.820;2023-05-13T12:29:14;101181.72;;;24.29;25.71
42067;BME280;27734;47.028;28.820;2023-05-13T12:35:15;101170.28;;;24.11;25.46
42067;BME280;27734;47.028;28.820;2023-05-13T12:37:58;101160.31;;;24.24;25.58
42067;BME280;27734;47.028;28.820;2023-05-13T12:40:37;101168.23;;;24.36;25.39
42067;BME280;27734;47.028;28.820;2023-05-13T12:43:08;101162.01;;;24.34;25.09
42067;BME280;27734;47.028;28.820;2023-05-13T12:45:41;101164.00;;;24.15;23.95
42067;BME280;27734;47.028;28.820;2023-05-13T12:48:11;101154.21;;;24.10;25.18
42067;BME280;27734;47.028;28.820;2023-05-13T12:50:43;101162.30;;;24.05;24.90
42067;BME280;27734;47.028;28.820;2023-05-13T12:53:23;101158.75;;;24.03;24.68
42067;BME280;27734;47.028;28.820;2023-05-13T12:56:00;101144.42;;;24.04;25.15
42067;BME280;27734;47.028;28.820;2023-05-13T12:58:41;101145.32;;;24.06;24.77
42067;BME280;27734;47.028;28.820;2023-05-13T13:01:13;101148.97;;;23.97;25.06
42067;BME280;27734;47.028;28.820;2023-05-13T13:03:42;101144.59;;;23.87;24.55
42067;BME280;27734;47.028;28.820;2023-05-13T13:06:20;101141.02;;;23.86;24.39
42067;BME280;27734;47.028;28.820;2023-05-13T13:08:50;101130.37;;;23.76;24.76
42067;BME280;27734;47.028;28.820;2023-05-13T13:11:19;101136.62;;;23.75;24.80
42067;BME280;27734;47.028;28.820;2023-05-13T13:13:49;101141.94;;;23.79;24.99
42067;BME280;27734;47.028;28.820;2023-05-13T13:16:18;101143.67;;;23.90;25.05
42067;BME280;27734;47.028;28.820;2023-05-13T13:18:47;101144.55;;;23.90;24.93
42067;BME280;27734;47.028;28.820;2023-05-13T13:21:17;101131.14;;;23.92;24.75
42067;BME280;27734;47.028;28.820;2023-05-13T13:23:48;101128.36;;;24.02;24.88
42067;BME280;27734;47.028;28.820;2023-05-13T13:26:28;101129.09;;;24.20;25.02
42067;BME280;27734;47.028;28.820;2023-05-13T13:28:56;101127.27;;;24.23;24.57
42067;BME280;27734;47.028;28.820;2023-05-13T13:31:26;101133.53;;;24.21;24.53
42067;BME280;27734;47.028;28.820;2023-05-13T13:33:54;101132.66;;;24.20;24.68